Alyeska Resort
Hourly Weather - Mid Mountian Site
ALY_MID_HR 5/24/2017
CLICK TO VIEW GRAPH!!

        DATE  TIME   Air   H2o   H2o   New  Snow  BATT   Rel
                    Temp  Inch Since  Snow Depth  Volt  Hum%
                      F   1HR  0600   1HR         AVG   AVG

   5/24/2017 18:00    38  0.02  0.40  46.1 15.06 13.32    96
   5/24/2017 17:00    38  0.01  0.38  46.0 15.31 13.32    96
   5/24/2017 16:00    38  0.04  0.37  46.0 14.41 13.32    98
   5/24/2017 15:00    38  0.05  0.33  46.0 13.89 13.32    98
   5/24/2017 14:00    37  0.04  0.28  46.0 15.12 13.33    97
   5/24/2017 13:00    38  0.03  0.24  46.0 15.08 13.32    97
   5/24/2017 12:00    38  0.03  0.21  46.0 15.56 13.33    96
   5/24/2017 11:00    38  0.02  0.18  45.9 15.54 13.33    97
   5/24/2017 10:00    37  0.05  0.16  45.9 15.61 13.32    96
   5/24/2017 09:00    38  0.04  0.11  45.7 15.48 13.32    97
   5/24/2017 08:00    38  0.04  0.07  45.6 15.76 13.32    96
   5/24/2017 07:00    38  0.03  0.03  45.3 15.79 13.30    96
   5/24/2017 06:00    38  0.03  0.06  45.2 15.87 13.29    95
   5/24/2017 05:00    38  0.02  0.03  45.0 15.77 13.27    91
   5/24/2017 04:00    39  0.01  0.01  45.1 15.69 13.24    86
   5/24/2017 03:00    42  0.00  0.00  45.3 15.60 13.19    71
   5/24/2017 02:00    41  0.00  0.00  45.3 15.80 12.68    75
   5/24/2017 01:00    42  0.00  0.00  43.4 15.74 12.13    72
   5/23/2017 24:00    41  0.00  0.00  44.9 15.84 12.84    72
   5/23/2017 23:00    42  0.00  0.00  47.4 15.79 13.22    69
   5/23/2017 22:00    44  0.00  0.00  52.4 15.54 13.20    62
   5/23/2017 21:00    46  0.00  0.00  56.4 15.52 13.18    58
   5/23/2017 20:00    50  0.00  0.00  56.8 14.95 13.17    48
   5/23/2017 19:00    52  0.00  0.00  54.8 14.68 13.16    46


CLICK TO VIEW GRAPH!!